sensor_id;sensor_type;location;lat;lon;timestamp;P1;durP1;ratioP1;P2;durP2;ratioP2
48613;SDS011;34408;51.426;5.444;2022-07-23T00:00:44;5.68;;;2.30;;
48613;SDS011;34408;51.426;5.444;2022-07-23T00:03:14;2.70;;;1.70;;
48613;SDS011;34408;51.426;5.444;2022-07-23T00:05:42;3.92;;;1.80;;
48613;SDS011;34408;51.426;5.444;2022-07-23T00:08:10;6.15;;;2.45;;
48613;SDS011;34408;51.426;5.444;2022-07-23T00:10:39;5.50;;;2.47;;
48613;SDS011;34408;51.426;5.444;2022-07-23T00:13:07;3.15;;;1.90;;
48613;SDS011;34408;51.426;5.444;2022-07-23T00:15:35;3.78;;;2.10;;
48613;SDS011;34408;51.426;5.444;2022-07-23T00:18:03;3.90;;;2.35;;
48613;SDS011;34408;51.426;5.444;2022-07-23T00:20:32;2.92;;;1.90;;
48613;SDS011;34408;51.426;5.444;2022-07-23T00:23:00;4.85;;;2.17;;
48613;SDS011;34408;51.426;5.444;2022-07-23T00:25:28;4.30;;;2.65;;
48613;SDS011;34408;51.426;5.444;2022-07-23T00:27:57;3.42;;;2.00;;
48613;SDS011;34408;51.426;5.444;2022-07-23T00:30:25;2.92;;;2.17;;
48613;SDS011;34408;51.426;5.444;2022-07-23T00:32:56;4.75;;;2.00;;
48613;SDS011;34408;51.426;5.444;2022-07-23T00:35:25;4.28;;;1.98;;
48613;SDS011;34408;51.426;5.444;2022-07-23T00:37:56;2.97;;;2.03;;
48613;SDS011;34408;51.426;5.444;2022-07-23T00:40:25;4.00;;;1.98;;
48613;SDS011;34408;51.426;5.444;2022-07-23T00:42:55;3.13;;;1.90;;
48613;SDS011;34408;51.426;5.444;2022-07-23T00:45:23;4.20;;;1.92;;
48613;SDS011;34408;51.426;5.444;2022-07-23T00:47:50;3.15;;;1.92;;
48613;SDS011;34408;51.426;5.444;2022-07-23T00:50:18;4.05;;;2.10;;
48613;SDS011;34408;51.426;5.444;2022-07-23T00:52:46;4.30;;;1.90;;
48613;SDS011;34408;51.426;5.444;2022-07-23T00:55:15;4.18;;;2.33;;
48613;SDS011;34408;51.426;5.444;2022-07-23T00:57:43;3.22;;;2.00;;
48613;SDS011;34408;51.426;5.444;2022-07-23T01:00:12;6.45;;;2.85;;
48613;SDS011;34408;51.426;5.444;2022-07-23T01:02:41;4.20;;;2.10;;
48613;SDS011;34408;51.426;5.444;2022-07-23T01:05:11;6.43;;;2.45;;
48613;SDS011;34408;51.426;5.444;2022-07-23T01:07:39;6.28;;;2.30;;
48613;SDS011;34408;51.426;5.444;2022-07-23T01:10:07;2.95;;;2.00;;
48613;SDS011;34408;51.426;5.444;2022-07-23T01:12:51;3.08;;;2.53;;
48613;SDS011;34408;51.426;5.444;2022-07-23T01:15:19;4.20;;;2.22;;
48613;SDS011;34408;51.426;5.444;2022-07-23T01:17:46;4.90;;;2.45;;
48613;SDS011;34408;51.426;5.444;2022-07-23T01:20:14;4.30;;;2.33;;
48613;SDS011;34408;51.426;5.444;2022-07-23T01:22:44;5.45;;;2.40;;
48613;SDS011;34408;51.426;5.444;2022-07-23T01:25:12;4.28;;;2.03;;
48613;SDS011;34408;51.426;5.444;2022-07-23T01:27:39;3.90;;;1.98;;
48613;SDS011;34408;51.426;5.444;2022-07-23T01:30:08;5.65;;;2.00;;
48613;SDS011;34408;51.426;5.444;2022-07-23T01:32:36;4.53;;;2.10;;
48613;SDS011;34408;51.426;5.444;2022-07-23T01:35:05;6.07;;;2.20;;
48613;SDS011;34408;51.426;5.444;2022-07-23T01:37:34;3.35;;;2.10;;
48613;SDS011;34408;51.426;5.444;2022-07-23T01:40:04;6.82;;;2.70;;
48613;SDS011;34408;51.426;5.444;2022-07-23T01:42:33;5.65;;;2.40;;
48613;SDS011;34408;51.426;5.444;2022-07-23T01:45:01;3.58;;;2.03;;
48613;SDS011;34408;51.426;5.444;2022-07-23T01:47:29;4.95;;;2.30;;
48613;SDS011;34408;51.426;5.444;2022-07-23T01:49:57;5.97;;;2.22;;
48613;SDS011;34408;51.426;5.444;2022-07-23T01:52:24;3.60;;;2.63;;
48613;SDS011;34408;51.426;5.444;2022-07-23T01:54:52;5.80;;;2.47;;
48613;SDS011;34408;51.426;5.444;2022-07-23T01:57:21;4.70;;;2.33;;
48613;SDS011;34408;51.426;5.444;2022-07-23T01:59:49;4.80;;;2.30;;
48613;SDS011;34408;51.426;5.444;2022-07-23T02:02:17;3.08;;;2.20;;
48613;SDS011;34408;51.426;5.444;2022-07-23T02:04:44;5.13;;;2.55;;
48613;SDS011;34408;51.426;5.444;2022-07-23T02:07:12;4.07;;;2.05;;
48613;SDS011;34408;51.426;5.444;2022-07-23T02:09:40;7.03;;;2.40;;
48613;SDS011;34408;51.426;5.444;2022-07-23T02:12:08;3.25;;;2.05;;
48613;SDS011;34408;51.426;5.444;2022-07-23T02:14:37;3.47;;;2.20;;
48613;SDS011;34408;51.426;5.444;2022-07-23T02:17:05;3.85;;;2.10;;
48613;SDS011;34408;51.426;5.444;2022-07-23T02:19:32;3.33;;;2.13;;
48613;SDS011;34408;51.426;5.444;2022-07-23T02:22:00;4.40;;;2.33;;
48613;SDS011;34408;51.426;5.444;2022-07-23T02:24:28;2.78;;;2.00;;
48613;SDS011;34408;51.426;5.444;2022-07-23T02:26:56;3.28;;;2.33;;
48613;SDS011;34408;51.426;5.444;2022-07-23T02:29:23;4.65;;;2.20;;
48613;SDS011;34408;51.426;5.444;2022-07-23T02:31:52;4.30;;;2.63;;
48613;SDS011;34408;51.426;5.444;2022-07-23T02:34:20;2.78;;;2.10;;
48613;SDS011;34408;51.426;5.444;2022-07-23T02:36:48;3.58;;;2.38;;
48613;SDS011;34408;51.426;5.444;2022-07-23T02:39:16;3.72;;;2.50;;
48613;SDS011;34408;51.426;5.444;2022-07-23T02:41:43;5.60;;;2.40;;
48613;SDS011;34408;51.426;5.444;2022-07-23T02:44:11;3.22;;;2.33;;
48613;SDS011;34408;51.426;5.444;2022-07-23T02:46:39;3.63;;;2.28;;
48613;SDS011;34408;51.426;5.444;2022-07-23T02:49:08;4.43;;;2.28;;
48613;SDS011;34408;51.426;5.444;2022-07-23T02:51:36;5.35;;;2.50;;
48613;SDS011;34408;51.426;5.444;2022-07-23T02:54:04;3.92;;;2.50;;
48613;SDS011;34408;51.426;5.444;2022-07-23T02:56:32;4.30;;;2.45;;
48613;SDS011;34408;51.426;5.444;2022-07-23T02:58:59;3.80;;;2.17;;
48613;SDS011;34408;51.426;5.444;2022-07-23T03:01:28;3.85;;;2.70;;
48613;SDS011;34408;51.426;5.444;2022-07-23T03:03:56;5.65;;;2.92;;
48613;SDS011;34408;51.426;5.444;2022-07-23T03:06:25;5.35;;;2.88;;
48613;SDS011;34408;51.426;5.444;2022-07-23T03:08:53;3.58;;;2.45;;
48613;SDS011;34408;51.426;5.444;2022-07-23T03:11:20;4.45;;;2.50;;
48613;SDS011;34408;51.426;5.444;2022-07-23T03:13:48;5.82;;;2.88;;
48613;SDS011;34408;51.426;5.444;2022-07-23T03:16:16;3.63;;;2.70;;
48613;SDS011;34408;51.426;5.444;2022-07-23T03:18:44;4.35;;;2.42;;
48613;SDS011;34408;51.426;5.444;2022-07-23T03:21:12;3.65;;;2.40;;
48613;SDS011;34408;51.426;5.444;2022-07-23T03:23:42;5.43;;;2.90;;
48613;SDS011;34408;51.426;5.444;2022-07-23T03:26:09;4.20;;;3.25;;
48613;SDS011;34408;51.426;5.444;2022-07-23T03:28:37;5.18;;;3.20;;
48613;SDS011;34408;51.426;5.444;2022-07-23T03:31:05;7.13;;;2.80;;
48613;SDS011;34408;51.426;5.444;2022-07-23T03:33:33;5.47;;;2.70;;
48613;SDS011;34408;51.426;5.444;2022-07-23T03:36:01;4.68;;;3.05;;
48613;SDS011;34408;51.426;5.444;2022-07-23T03:38:33;4.05;;;3.17;;
48613;SDS011;34408;51.426;5.444;2022-07-23T03:41:02;6.00;;;3.38;;
48613;SDS011;34408;51.426;5.444;2022-07-23T03:43:31;6.22;;;3.35;;
48613;SDS011;34408;51.426;5.444;2022-07-23T03:45:58;5.40;;;2.75;;
48613;SDS011;34408;51.426;5.444;2022-07-23T03:48:26;4.47;;;2.63;;
48613;SDS011;34408;51.426;5.444;2022-07-23T03:50:54;4.72;;;3.35;;
48613;SDS011;34408;51.426;5.444;2022-07-23T03:53:22;4.90;;;3.15;;
48613;SDS011;34408;51.426;5.444;2022-07-23T03:55:49;6.30;;;3.35;;
48613;SDS011;34408;51.426;5.444;2022-07-23T03:58:19;9.25;;;3.75;;
48613;SDS011;34408;51.426;5.444;2022-07-23T04:00:46;7.25;;;3.75;;
48613;SDS011;34408;51.426;5.444;2022-07-23T04:03:14;5.97;;;4.18;;
48613;SDS011;34408;51.426;5.444;2022-07-23T04:05:42;5.15;;;3.53;;
48613;SDS011;34408;51.426;5.444;2022-07-23T04:08:10;5.72;;;3.90;;
48613;SDS011;34408;51.426;5.444;2022-07-23T04:10:38;7.20;;;4.20;;
48613;SDS011;34408;51.426;5.444;2022-07-23T04:13:06;5.85;;;4.25;;
48613;SDS011;34408;51.426;5.444;2022-07-23T04:15:35;7.05;;;4.03;;
48613;SDS011;34408;51.426;5.444;2022-07-23T04:18:04;6.13;;;4.35;;
48613;SDS011;34408;51.426;5.444;2022-07-23T04:20:32;6.00;;;4.25;;
48613;SDS011;34408;51.426;5.444;2022-07-23T04:23:05;9.05;;;4.40;;
48613;SDS011;34408;51.426;5.444;2022-07-23T04:25:33;7.03;;;4.18;;
48613;SDS011;34408;51.426;5.444;2022-07-23T04:28:01;5.07;;;3.88;;
48613;SDS011;34408;51.426;5.444;2022-07-23T04:30:29;8.00;;;4.05;;
48613;SDS011;34408;51.426;5.444;2022-07-23T04:32:58;5.22;;;3.83;;
48613;SDS011;34408;51.426;5.444;2022-07-23T04:35:26;7.50;;;4.90;;
48613;SDS011;34408;51.426;5.444;2022-07-23T04:37:54;8.60;;;4.03;;
48613;SDS011;34408;51.426;5.444;2022-07-23T04:40:21;6.13;;;4.10;;
48613;SDS011;34408;51.426;5.444;2022-07-23T04:42:49;5.68;;;4.47;;
48613;SDS011;34408;51.426;5.444;2022-07-23T04:45:17;5.78;;;4.05;;
48613;SDS011;34408;51.426;5.444;2022-07-23T04:47:45;7.57;;;4.80;;
48613;SDS011;34408;51.426;5.444;2022-07-23T04:50:14;5.70;;;3.90;;
48613;SDS011;34408;51.426;5.444;2022-07-23T04:52:45;5.72;;;4.07;;
48613;SDS011;34408;51.426;5.444;2022-07-23T04:55:12;6.90;;;3.58;;
48613;SDS011;34408;51.426;5.444;2022-07-23T04:57:40;6.55;;;3.33;;
48613;SDS011;34408;51.426;5.444;2022-07-23T05:00:09;6.82;;;3.85;;
48613;SDS011;34408;51.426;5.444;2022-07-23T05:02:37;5.82;;;3.55;;
48613;SDS011;34408;51.426;5.444;2022-07-23T05:05:05;5.18;;;3.13;;
48613;SDS011;34408;51.426;5.444;2022-07-23T05:07:34;4.45;;;3.05;;
48613;SDS011;34408;51.426;5.444;2022-07-23T05:10:02;5.40;;;3.10;;
48613;SDS011;34408;51.426;5.444;2022-07-23T05:12:31;6.78;;;3.20;;
48613;SDS011;34408;51.426;5.444;2022-07-23T05:14:59;5.60;;;3.17;;
48613;SDS011;34408;51.426;5.444;2022-07-23T05:17:26;4.97;;;3.00;;
48613;SDS011;34408;51.426;5.444;2022-07-23T05:19:54;6.82;;;3.55;;
48613;SDS011;34408;51.426;5.444;2022-07-23T05:22:26;5.75;;;3.45;;
48613;SDS011;34408;51.426;5.444;2022-07-23T05:24:56;5.65;;;3.03;;
48613;SDS011;34408;51.426;5.444;2022-07-23T05:27:23;4.28;;;2.67;;
48613;SDS011;34408;51.426;5.444;2022-07-23T05:29:51;3.97;;;3.08;;
48613;SDS011;34408;51.426;5.444;2022-07-23T05:32:19;4.78;;;2.78;;
48613;SDS011;34408;51.426;5.444;2022-07-23T05:34:47;4.53;;;3.03;;
48613;SDS011;34408;51.426;5.444;2022-07-23T05:37:15;5.43;;;3.10;;
48613;SDS011;34408;51.426;5.444;2022-07-23T05:39:42;4.22;;;2.95;;
48613;SDS011;34408;51.426;5.444;2022-07-23T05:42:11;3.47;;;2.65;;
48613;SDS011;34408;51.426;5.444;2022-07-23T05:44:39;5.20;;;2.83;;
48613;SDS011;34408;51.426;5.444;2022-07-23T05:47:07;4.07;;;2.67;;
48613;SDS011;34408;51.426;5.444;2022-07-23T05:49:36;3.90;;;2.78;;
48613;SDS011;34408;51.426;5.444;2022-07-23T05:52:05;4.60;;;3.00;;
48613;SDS011;34408;51.426;5.444;2022-07-23T05:54:33;3.22;;;2.33;;
48613;SDS011;34408;51.426;5.444;2022-07-23T05:57:01;4.60;;;2.53;;
48613;SDS011;34408;51.426;5.444;2022-07-23T05:59:30;3.00;;;2.45;;
48613;SDS011;34408;51.426;5.444;2022-07-23T06:01:58;6.25;;;3.22;;
48613;SDS011;34408;51.426;5.444;2022-07-23T06:04:26;4.45;;;2.78;;
48613;SDS011;34408;51.426;5.444;2022-07-23T06:06:54;4.55;;;3.10;;
48613;SDS011;34408;51.426;5.444;2022-07-23T06:09:22;3.53;;;3.05;;
48613;SDS011;34408;51.426;5.444;2022-07-23T06:11:50;5.40;;;2.58;;
48613;SDS011;34408;51.426;5.444;2022-07-23T06:14:17;3.80;;;2.70;;
48613;SDS011;34408;51.426;5.444;2022-07-23T06:16:46;4.95;;;2.75;;
48613;SDS011;34408;51.426;5.444;2022-07-23T06:19:14;3.58;;;2.25;;
48613;SDS011;34408;51.426;5.444;2022-07-23T06:21:42;4.45;;;2.70;;
48613;SDS011;34408;51.426;5.444;2022-07-23T06:24:13;3.53;;;2.72;;
48613;SDS011;34408;51.426;5.444;2022-07-23T06:26:41;3.45;;;2.63;;
48613;SDS011;34408;51.426;5.444;2022-07-23T06:29:08;4.47;;;3.00;;
48613;SDS011;34408;51.426;5.444;2022-07-23T06:31:36;5.15;;;2.70;;
48613;SDS011;34408;51.426;5.444;2022-07-23T06:34:06;3.22;;;2.30;;
48613;SDS011;34408;51.426;5.444;2022-07-23T06:36:33;5.45;;;2.47;;
48613;SDS011;34408;51.426;5.444;2022-07-23T06:39:01;4.30;;;3.17;;
48613;SDS011;34408;51.426;5.444;2022-07-23T06:41:31;3.72;;;2.00;;
48613;SDS011;34408;51.426;5.444;2022-07-23T06:43:58;3.42;;;2.47;;
48613;SDS011;34408;51.426;5.444;2022-07-23T06:46:26;2.95;;;2.22;;
48613;SDS011;34408;51.426;5.444;2022-07-23T06:48:54;4.97;;;2.55;;
48613;SDS011;34408;51.426;5.444;2022-07-23T06:51:23;3.67;;;1.90;;
48613;SDS011;34408;51.426;5.444;2022-07-23T06:53:51;4.25;;;2.78;;
48613;SDS011;34408;51.426;5.444;2022-07-23T06:56:19;3.75;;;2.63;;
48613;SDS011;34408;51.426;5.444;2022-07-23T06:58:47;4.07;;;2.22;;
48613;SDS011;34408;51.426;5.444;2022-07-23T07:01:15;5.95;;;2.53;;
48613;SDS011;34408;51.426;5.444;2022-07-23T07:03:43;2.83;;;2.08;;
48613;SDS011;34408;51.426;5.444;2022-07-23T07:06:10;4.30;;;2.25;;
48613;SDS011;34408;51.426;5.444;2022-07-23T07:08:39;3.72;;;1.65;;
48613;SDS011;34408;51.426;5.444;2022-07-23T07:11:09;4.25;;;2.13;;
48613;SDS011;34408;51.426;5.444;2022-07-23T07:13:37;4.10;;;2.20;;
48613;SDS011;34408;51.426;5.444;2022-07-23T07:16:05;3.67;;;1.98;;
48613;SDS011;34408;51.426;5.444;2022-07-23T07:18:33;5.28;;;2.10;;
48613;SDS011;34408;51.426;5.444;2022-07-23T07:21:01;5.57;;;2.42;;
48613;SDS011;34408;51.426;5.444;2022-07-23T07:23:29;12.55;;;2.33;;
48613;SDS011;34408;51.426;5.444;2022-07-23T07:25:58;5.50;;;2.28;;
48613;SDS011;34408;51.426;5.444;2022-07-23T07:28:28;8.85;;;3.40;;
48613;SDS011;34408;51.426;5.444;2022-07-23T07:30:56;9.50;;;2.28;;
48613;SDS011;34408;51.426;5.444;2022-07-23T07:33:24;8.75;;;2.20;;
48613;SDS011;34408;51.426;5.444;2022-07-23T07:35:52;6.07;;;2.35;;
48613;SDS011;34408;51.426;5.444;2022-07-23T07:38:20;4.57;;;1.95;;
48613;SDS011;34408;51.426;5.444;2022-07-23T07:40:47;5.38;;;2.13;;
48613;SDS011;34408;51.426;5.444;2022-07-23T07:43:17;3.63;;;1.80;;
48613;SDS011;34408;51.426;5.444;2022-07-23T07:45:44;3.33;;;1.80;;
48613;SDS011;34408;51.426;5.444;2022-07-23T07:48:12;7.57;;;2.78;;
48613;SDS011;34408;51.426;5.444;2022-07-23T07:50:40;2.90;;;1.77;;
48613;SDS011;34408;51.426;5.444;2022-07-23T07:53:09;7.13;;;2.20;;
48613;SDS011;34408;51.426;5.444;2022-07-23T07:55:37;3.85;;;2.00;;
48613;SDS011;34408;51.426;5.444;2022-07-23T07:58:05;6.10;;;1.70;;
48613;SDS011;34408;51.426;5.444;2022-07-23T08:00:34;5.30;;;1.90;;
48613;SDS011;34408;51.426;5.444;2022-07-23T08:03:02;3.10;;;2.20;;
48613;SDS011;34408;51.426;5.444;2022-07-23T08:05:31;1.77;;;1.48;;
48613;SDS011;34408;51.426;5.444;2022-07-23T08:07:59;4.10;;;1.90;;
48613;SDS011;34408;51.426;5.444;2022-07-23T08:10:27;3.03;;;1.73;;
48613;SDS011;34408;51.426;5.444;2022-07-23T08:12:56;3.70;;;1.80;;
48613;SDS011;34408;51.426;5.444;2022-07-23T08:15:24;4.90;;;1.75;;
48613;SDS011;34408;51.426;5.444;2022-07-23T08:17:55;2.97;;;1.80;;
48613;SDS011;34408;51.426;5.444;2022-07-23T08:20:24;4.50;;;2.13;;
48613;SDS011;34408;51.426;5.444;2022-07-23T08:22:55;3.10;;;1.60;;
48613;SDS011;34408;51.426;5.444;2022-07-23T08:25:24;3.58;;;2.20;;
48613;SDS011;34408;51.426;5.444;2022-07-23T08:27:53;5.22;;;1.90;;
48613;SDS011;34408;51.426;5.444;2022-07-23T08:30:22;4.50;;;2.38;;
48613;SDS011;34408;51.426;5.444;2022-07-23T08:32:51;3.38;;;1.65;;
48613;SDS011;34408;51.426;5.444;2022-07-23T08:35:23;3.65;;;1.90;;
48613;SDS011;34408;51.426;5.444;2022-07-23T08:37:52;3.13;;;1.92;;
48613;SDS011;34408;51.426;5.444;2022-07-23T08:40:21;3.90;;;1.67;;
48613;SDS011;34408;51.426;5.444;2022-07-23T08:42:50;2.67;;;2.08;;
48613;SDS011;34408;51.426;5.444;2022-07-23T08:45:19;5.47;;;2.05;;
48613;SDS011;34408;51.426;5.444;2022-07-23T08:47:50;3.33;;;2.38;;
48613;SDS011;34408;51.426;5.444;2022-07-23T08:50:19;4.32;;;2.47;;
48613;SDS011;34408;51.426;5.444;2022-07-23T08:52:49;3.25;;;2.08;;
48613;SDS011;34408;51.426;5.444;2022-07-23T08:55:18;4.00;;;2.00;;
48613;SDS011;34408;51.426;5.444;2022-07-23T08:57:47;3.97;;;2.10;;
48613;SDS011;34408;51.426;5.444;2022-07-23T09:00:16;4.97;;;2.13;;
48613;SDS011;34408;51.426;5.444;2022-07-23T09:02:45;3.35;;;2.10;;
48613;SDS011;34408;51.426;5.444;2022-07-23T09:05:14;2.67;;;1.88;;
48613;SDS011;34408;51.426;5.444;2022-07-23T09:10:48;7.13;;;2.75;;
48613;SDS011;34408;51.426;5.444;2022-07-23T09:13:24;5.30;;;2.50;;
48613;SDS011;34408;51.426;5.444;2022-07-23T09:15:55;3.35;;;2.13;;
48613;SDS011;34408;51.426;5.444;2022-07-23T09:18:31;6.50;;;2.00;;
48613;SDS011;34408;51.426;5.444;2022-07-23T09:21:16;3.90;;;2.42;;
48613;SDS011;34408;51.426;5.444;2022-07-23T09:23:48;4.18;;;2.00;;
48613;SDS011;34408;51.426;5.444;2022-07-23T09:26:24;4.00;;;1.88;;
48613;SDS011;34408;51.426;5.444;2022-07-23T09:29:01;5.00;;;1.88;;
48613;SDS011;34408;51.426;5.444;2022-07-23T09:31:34;3.25;;;1.70;;
48613;SDS011;34408;51.426;5.444;2022-07-23T09:34:14;3.58;;;2.10;;
48613;SDS011;34408;51.426;5.444;2022-07-23T09:36:43;4.20;;;2.08;;
48613;SDS011;34408;51.426;5.444;2022-07-23T09:39:14;5.32;;;2.33;;
48613;SDS011;34408;51.426;5.444;2022-07-23T09:41:44;8.00;;;2.67;;
48613;SDS011;34408;51.426;5.444;2022-07-23T09:44:14;4.65;;;2.17;;
48613;SDS011;34408;51.426;5.444;2022-07-23T09:46:43;4.00;;;1.85;;
48613;SDS011;34408;51.426;5.444;2022-07-23T09:49:14;3.47;;;1.92;;
48613;SDS011;34408;51.426;5.444;2022-07-23T09:51:44;5.28;;;2.20;;
48613;SDS011;34408;51.426;5.444;2022-07-23T09:54:22;5.13;;;2.08;;
48613;SDS011;34408;51.426;5.444;2022-07-23T09:56:57;4.45;;;1.80;;
48613;SDS011;34408;51.426;5.444;2022-07-23T09:59:26;2.83;;;1.80;;
48613;SDS011;34408;51.426;5.444;2022-07-23T10:01:55;5.60;;;2.00;;
48613;SDS011;34408;51.426;5.444;2022-07-23T10:04:26;2.97;;;1.83;;
48613;SDS011;34408;51.426;5.444;2022-07-23T10:06:56;4.13;;;2.00;;
48613;SDS011;34408;51.426;5.444;2022-07-23T10:09:27;3.65;;;1.88;;
48613;SDS011;34408;51.426;5.444;2022-07-23T10:11:57;5.43;;;1.75;;
48613;SDS011;34408;51.426;5.444;2022-07-23T10:14:43;4.43;;;2.03;;
48613;SDS011;34408;51.426;5.444;2022-07-23T10:17:11;2.67;;;1.70;;
48613;SDS011;34408;51.426;5.444;2022-07-23T10:19:39;3.25;;;1.70;;
48613;SDS011;34408;51.426;5.444;2022-07-23T10:22:08;2.13;;;1.55;;
48613;SDS011;34408;51.426;5.444;2022-07-23T10:24:44;5.18;;;1.80;;
48613;SDS011;34408;51.426;5.444;2022-07-23T10:27:26;2.40;;;1.60;;
48613;SDS011;34408;51.426;5.444;2022-07-23T10:30:05;3.28;;;1.60;;
48613;SDS011;34408;51.426;5.444;2022-07-23T10:32:37;4.05;;;2.00;;
48613;SDS011;34408;51.426;5.444;2022-07-23T10:35:15;2.78;;;1.50;;
48613;SDS011;34408;51.426;5.444;2022-07-23T10:37:51;4.57;;;1.67;;
48613;SDS011;34408;51.426;5.444;2022-07-23T10:40:25;2.78;;;1.58;;
48613;SDS011;34408;51.426;5.444;2022-07-23T10:42:54;3.42;;;1.60;;
48613;SDS011;34408;51.426;5.444;2022-07-23T10:45:28;3.22;;;1.35;;
48613;SDS011;34408;51.426;5.444;2022-07-23T10:48:14;4.25;;;1.92;;
48613;SDS011;34408;51.426;5.444;2022-07-23T10:50:43;7.80;;;1.85;;
48613;SDS011;34408;51.426;5.444;2022-07-23T11:02:35;2.83;;;1.77;;
48613;SDS011;34408;51.426;5.444;2022-07-23T11:05:04;3.38;;;1.65;;
48613;SDS011;34408;51.426;5.444;2022-07-23T11:07:35;4.68;;;1.85;;
48613;SDS011;34408;51.426;5.444;2022-07-23T11:10:03;2.97;;;1.95;;
48613;SDS011;34408;51.426;5.444;2022-07-23T11:12:33;4.60;;;1.67;;
48613;SDS011;34408;51.426;5.444;2022-07-23T11:15:05;4.80;;;1.52;;
48613;SDS011;34408;51.426;5.444;2022-07-23T11:17:35;3.63;;;1.75;;
48613;SDS011;34408;51.426;5.444;2022-07-23T11:20:16;7.45;;;2.00;;
48613;SDS011;34408;51.426;5.444;2022-07-23T11:22:54;2.30;;;1.30;;
48613;SDS011;34408;51.426;5.444;2022-07-23T11:25:34;2.88;;;1.30;;
48613;SDS011;34408;51.426;5.444;2022-07-23T11:28:09;3.15;;;1.70;;
48613;SDS011;34408;51.426;5.444;2022-07-23T11:30:40;2.28;;;1.60;;
48613;SDS011;34408;51.426;5.444;2022-07-23T11:33:16;2.15;;;1.58;;
48613;SDS011;34408;51.426;5.444;2022-07-23T11:35:46;2.05;;;1.45;;
48613;SDS011;34408;51.426;5.444;2022-07-23T11:38:17;2.15;;;1.63;;
48613;SDS011;34408;51.426;5.444;2022-07-23T11:40:49;5.50;;;1.58;;
48613;SDS011;34408;51.426;5.444;2022-07-23T11:43:20;2.05;;;1.40;;
48613;SDS011;34408;51.426;5.444;2022-07-23T11:45:49;2.25;;;1.50;;
48613;SDS011;34408;51.426;5.444;2022-07-23T11:48:18;1.73;;;1.38;;
48613;SDS011;34408;51.426;5.444;2022-07-23T11:50:48;4.75;;;1.70;;
48613;SDS011;34408;51.426;5.444;2022-07-23T11:53:23;2.45;;;1.42;;
48613;SDS011;34408;51.426;5.444;2022-07-23T11:55:52;2.67;;;1.63;;
48613;SDS011;34408;51.426;5.444;2022-07-23T11:58:22;2.90;;;1.30;;
48613;SDS011;34408;51.426;5.444;2022-07-23T12:00:50;2.17;;;1.42;;
48613;SDS011;34408;51.426;5.444;2022-07-23T12:03:20;2.22;;;1.42;;
48613;SDS011;34408;51.426;5.444;2022-07-23T12:05:48;1.92;;;1.40;;
48613;SDS011;34408;51.426;5.444;2022-07-23T12:08:16;2.78;;;1.63;;
48613;SDS011;34408;51.426;5.444;2022-07-23T12:10:44;1.92;;;1.52;;
48613;SDS011;34408;51.426;5.444;2022-07-23T12:13:12;1.90;;;1.58;;
48613;SDS011;34408;51.426;5.444;2022-07-23T12:15:45;2.83;;;1.40;;
48613;SDS011;34408;51.426;5.444;2022-07-23T12:18:14;2.20;;;1.40;;
48613;SDS011;34408;51.426;5.444;2022-07-23T12:20:44;2.38;;;1.35;;
48613;SDS011;34408;51.426;5.444;2022-07-23T12:23:17;2.65;;;1.67;;
48613;SDS011;34408;51.426;5.444;2022-07-23T12:25:47;2.30;;;1.80;;
48613;SDS011;34408;51.426;5.444;2022-07-23T12:28:16;2.33;;;1.55;;
48613;SDS011;34408;51.426;5.444;2022-07-23T12:30:47;4.88;;;1.63;;
48613;SDS011;34408;51.426;5.444;2022-07-23T12:33:21;2.85;;;1.65;;
48613;SDS011;34408;51.426;5.444;2022-07-23T12:35:51;2.40;;;1.45;;
48613;SDS011;34408;51.426;5.444;2022-07-23T12:38:21;2.65;;;1.40;;
48613;SDS011;34408;51.426;5.444;2022-07-23T12:40:51;3.00;;;1.50;;
48613;SDS011;34408;51.426;5.444;2022-07-23T12:43:21;2.33;;;1.40;;
48613;SDS011;34408;51.426;5.444;2022-07-23T12:45:52;4.57;;;1.90;;
48613;SDS011;34408;51.426;5.444;2022-07-23T12:48:23;3.33;;;1.80;;
48613;SDS011;34408;51.426;5.444;2022-07-23T12:50:56;3.75;;;1.40;;
48613;SDS011;34408;51.426;5.444;2022-07-23T12:53:26;3.42;;;1.80;;
48613;SDS011;34408;51.426;5.444;2022-07-23T12:56:00;2.55;;;1.50;;
48613;SDS011;34408;51.426;5.444;2022-07-23T12:58:41;3.20;;;1.80;;
48613;SDS011;34408;51.426;5.444;2022-07-23T13:03:57;3.67;;;2.03;;
48613;SDS011;34408;51.426;5.444;2022-07-23T13:06:27;2.67;;;1.50;;
48613;SDS011;34408;51.426;5.444;2022-07-23T13:08:56;2.53;;;1.60;;
48613;SDS011;34408;51.426;5.444;2022-07-23T13:11:27;2.67;;;1.70;;
48613;SDS011;34408;51.426;5.444;2022-07-23T13:13:56;5.00;;;2.08;;
48613;SDS011;34408;51.426;5.444;2022-07-23T13:16:25;4.60;;;1.90;;
48613;SDS011;34408;51.426;5.444;2022-07-23T13:18:53;9.02;;;2.80;;
48613;SDS011;34408;51.426;5.444;2022-07-23T13:21:32;2.58;;;1.70;;
48613;SDS011;34408;51.426;5.444;2022-07-23T13:24:01;5.50;;;2.40;;
48613;SDS011;34408;51.426;5.444;2022-07-23T13:26:34;4.03;;;2.15;;
48613;SDS011;34408;51.426;5.444;2022-07-23T13:29:03;6.28;;;2.40;;
48613;SDS011;34408;51.426;5.444;2022-07-23T13:31:36;5.00;;;2.40;;
48613;SDS011;34408;51.426;5.444;2022-07-23T13:34:04;6.50;;;2.92;;
48613;SDS011;34408;51.426;5.444;2022-07-23T13:36:33;3.20;;;1.58;;
48613;SDS011;34408;51.426;5.444;2022-07-23T13:39:01;3.17;;;2.00;;
48613;SDS011;34408;51.426;5.444;2022-07-23T13:41:32;4.07;;;1.75;;
48613;SDS011;34408;51.426;5.444;2022-07-23T13:44:01;5.03;;;1.85;;
48613;SDS011;34408;51.426;5.444;2022-07-23T13:46:29;3.40;;;1.83;;
48613;SDS011;34408;51.426;5.444;2022-07-23T13:48:58;4.18;;;2.33;;
48613;SDS011;34408;51.426;5.444;2022-07-23T13:51:27;2.65;;;1.75;;
48613;SDS011;34408;51.426;5.444;2022-07-23T13:53:55;3.40;;;1.98;;
48613;SDS011;34408;51.426;5.444;2022-07-23T13:56:25;2.40;;;1.80;;
48613;SDS011;34408;51.426;5.444;2022-07-23T13:58:53;3.13;;;1.75;;
48613;SDS011;34408;51.426;5.444;2022-07-23T14:01:22;2.65;;;2.03;;
48613;SDS011;34408;51.426;5.444;2022-07-23T14:03:50;3.20;;;2.00;;
48613;SDS011;34408;51.426;5.444;2022-07-23T14:06:20;2.17;;;1.70;;
48613;SDS011;34408;51.426;5.444;2022-07-23T14:08:58;3.28;;;1.83;;
48613;SDS011;34408;51.426;5.444;2022-07-23T14:11:26;2.97;;;1.70;;
48613;SDS011;34408;51.426;5.444;2022-07-23T14:13:56;3.00;;;1.58;;
48613;SDS011;34408;51.426;5.444;2022-07-23T14:16:24;11.68;;;2.00;;
48613;SDS011;34408;51.426;5.444;2022-07-23T14:18:52;4.47;;;1.67;;
48613;SDS011;34408;51.426;5.444;2022-07-23T14:21:22;3.33;;;1.80;;
48613;SDS011;34408;51.426;5.444;2022-07-23T14:23:50;3.03;;;1.80;;
48613;SDS011;34408;51.426;5.444;2022-07-23T14:26:19;4.82;;;1.83;;
48613;SDS011;34408;51.426;5.444;2022-07-23T14:28:47;4.57;;;1.63;;
48613;SDS011;34408;51.426;5.444;2022-07-23T14:31:15;3.78;;;2.50;;
48613;SDS011;34408;51.426;5.444;2022-07-23T14:33:52;2.16;;;1.80;;
48613;SDS011;34408;51.426;5.444;2022-07-23T14:36:21;3.15;;;1.80;;
48613;SDS011;34408;51.426;5.444;2022-07-23T14:38:49;4.40;;;1.60;;
48613;SDS011;34408;51.426;5.444;2022-07-23T14:41:17;4.10;;;1.80;;
48613;SDS011;34408;51.426;5.444;2022-07-23T14:43:52;2.22;;;1.52;;
48613;SDS011;34408;51.426;5.444;2022-07-23T14:46:20;4.43;;;2.10;;
48613;SDS011;34408;51.426;5.444;2022-07-23T14:48:49;3.33;;;1.75;;
48613;SDS011;34408;51.426;5.444;2022-07-23T14:51:17;1.90;;;1.67;;
48613;SDS011;34408;51.426;5.444;2022-07-23T14:53:46;5.13;;;1.67;;
48613;SDS011;34408;51.426;5.444;2022-07-23T14:56:14;3.42;;;2.10;;
48613;SDS011;34408;51.426;5.444;2022-07-23T14:58:42;4.35;;;2.28;;
48613;SDS011;34408;51.426;5.444;2022-07-23T15:01:10;3.13;;;2.25;;
48613;SDS011;34408;51.426;5.444;2022-07-23T15:03:38;7.28;;;1.80;;
48613;SDS011;34408;51.426;5.444;2022-07-23T15:06:08;2.85;;;1.80;;
48613;SDS011;34408;51.426;5.444;2022-07-23T15:08:37;4.13;;;2.10;;
48613;SDS011;34408;51.426;5.444;2022-07-23T15:11:07;4.18;;;2.28;;
48613;SDS011;34408;51.426;5.444;2022-07-23T15:13:36;6.47;;;2.28;;
48613;SDS011;34408;51.426;5.444;2022-07-23T15:16:04;2.67;;;2.03;;